sensor_id;sensor_type;location;lat;lon;timestamp;P1;durP1;ratioP1;P2;durP2;ratioP2
13487;SDS011;6816;48.506;9.050;2023-04-29T00:01:50;1.80;;;1.50;;
13487;SDS011;6816;48.506;9.050;2023-04-29T00:04:51;1.73;;;1.63;;
13487;SDS011;6816;48.506;9.050;2023-04-29T00:07:52;1.60;;;1.10;;
13487;SDS011;6816;48.506;9.050;2023-04-29T00:10:52;1.30;;;1.13;;
13487;SDS011;6816;48.506;9.050;2023-04-29T00:13:53;2.53;;;1.50;;
13487;SDS011;6816;48.506;9.050;2023-04-29T00:16:54;2.13;;;1.90;;
13487;SDS011;6816;48.506;9.050;2023-04-29T00:19:54;2.50;;;1.60;;
13487;SDS011;6816;48.506;9.050;2023-04-29T00:22:55;2.90;;;1.60;;
13487;SDS011;6816;48.506;9.050;2023-04-29T00:25:55;2.50;;;1.87;;
13487;SDS011;6816;48.506;9.050;2023-04-29T00:28:56;1.67;;;1.57;;
13487;SDS011;6816;48.506;9.050;2023-04-29T00:31:56;1.70;;;1.60;;
13487;SDS011;6816;48.506;9.050;2023-04-29T00:34:57;3.30;;;1.60;;
13487;SDS011;6816;48.506;9.050;2023-04-29T00:37:58;9.50;;;1.70;;
13487;SDS011;6816;48.506;9.050;2023-04-29T00:40:59;3.60;;;1.27;;
13487;SDS011;6816;48.506;9.050;2023-04-29T00:44:00;1.00;;;0.80;;
13487;SDS011;6816;48.506;9.050;2023-04-29T00:47:00;0.70;;;0.70;;
13487;SDS011;6816;48.506;9.050;2023-04-29T00:50:01;0.67;;;0.67;;
13487;SDS011;6816;48.506;9.050;2023-04-29T00:53:01;0.93;;;0.60;;
13487;SDS011;6816;48.506;9.050;2023-04-29T00:56:02;1.07;;;0.87;;
13487;SDS011;6816;48.506;9.050;2023-04-29T00:59:04;1.30;;;1.20;;
13487;SDS011;6816;48.506;9.050;2023-04-29T01:02:05;0.90;;;0.90;;
13487;SDS011;6816;48.506;9.050;2023-04-29T01:05:06;1.03;;;1.00;;
13487;SDS011;6816;48.506;9.050;2023-04-29T01:08:26;2.00;;;1.30;;
13487;SDS011;6816;48.506;9.050;2023-04-29T01:18:19;3.33;;;1.60;;
13487;SDS011;6816;48.506;9.050;2023-04-29T01:21:25;1.70;;;1.47;;
13487;SDS011;6816;48.506;9.050;2023-04-29T01:24:25;3.13;;;1.53;;
13487;SDS011;6816;48.506;9.050;2023-04-29T01:27:36;2.97;;;1.80;;
13487;SDS011;6816;48.506;9.050;2023-04-29T01:34:24;2.27;;;1.80;;
13487;SDS011;6816;48.506;9.050;2023-04-29T01:37:58;2.97;;;1.90;;
13487;SDS011;6816;48.506;9.050;2023-04-29T01:44:27;3.80;;;2.03;;
13487;SDS011;6816;48.506;9.050;2023-04-29T01:47:30;6.10;;;1.93;;
13487;SDS011;6816;48.506;9.050;2023-04-29T01:50:31;2.70;;;1.40;;
13487;SDS011;6816;48.506;9.050;2023-04-29T01:53:32;2.20;;;1.70;;
13487;SDS011;6816;48.506;9.050;2023-04-29T01:56:33;2.00;;;1.40;;
13487;SDS011;6816;48.506;9.050;2023-04-29T01:59:33;1.30;;;1.20;;
13487;SDS011;6816;48.506;9.050;2023-04-29T02:02:34;1.60;;;1.50;;
13487;SDS011;6816;48.506;9.050;2023-04-29T02:05:35;2.57;;;1.47;;
13487;SDS011;6816;48.506;9.050;2023-04-29T02:08:36;1.47;;;1.37;;
13487;SDS011;6816;48.506;9.050;2023-04-29T02:11:37;1.47;;;1.37;;
13487;SDS011;6816;48.506;9.050;2023-04-29T02:14:37;1.40;;;1.30;;
13487;SDS011;6816;48.506;9.050;2023-04-29T02:17:38;3.37;;;1.60;;
13487;SDS011;6816;48.506;9.050;2023-04-29T02:20:39;1.80;;;1.70;;
13487;SDS011;6816;48.506;9.050;2023-04-29T02:23:39;2.80;;;1.57;;
13487;SDS011;6816;48.506;9.050;2023-04-29T02:26:40;2.87;;;1.80;;
13487;SDS011;6816;48.506;9.050;2023-04-29T02:29:41;1.97;;;1.70;;
13487;SDS011;6816;48.506;9.050;2023-04-29T02:32:41;5.17;;;2.10;;
13487;SDS011;6816;48.506;9.050;2023-04-29T02:35:42;3.73;;;2.10;;
13487;SDS011;6816;48.506;9.050;2023-04-29T02:38:43;4.17;;;2.00;;
13487;SDS011;6816;48.506;9.050;2023-04-29T02:41:44;4.23;;;2.37;;
13487;SDS011;6816;48.506;9.050;2023-04-29T02:44:44;7.90;;;2.73;;
13487;SDS011;6816;48.506;9.050;2023-04-29T02:47:45;3.93;;;2.10;;
13487;SDS011;6816;48.506;9.050;2023-04-29T02:50:46;4.57;;;2.27;;
13487;SDS011;6816;48.506;9.050;2023-04-29T02:53:46;2.97;;;2.20;;
13487;SDS011;6816;48.506;9.050;2023-04-29T02:56:47;2.23;;;1.77;;
13487;SDS011;6816;48.506;9.050;2023-04-29T02:59:47;5.87;;;2.00;;
13487;SDS011;6816;48.506;9.050;2023-04-29T03:02:48;4.80;;;1.80;;
13487;SDS011;6816;48.506;9.050;2023-04-29T03:05:49;2.90;;;2.00;;
13487;SDS011;6816;48.506;9.050;2023-04-29T03:08:49;7.07;;;1.70;;
13487;SDS011;6816;48.506;9.050;2023-04-29T03:11:51;4.33;;;1.83;;
13487;SDS011;6816;48.506;9.050;2023-04-29T03:14:52;2.77;;;1.77;;
13487;SDS011;6816;48.506;9.050;2023-04-29T03:17:52;5.00;;;2.00;;
13487;SDS011;6816;48.506;9.050;2023-04-29T03:20:53;2.30;;;1.40;;
13487;SDS011;6816;48.506;9.050;2023-04-29T03:23:54;3.50;;;1.47;;
13487;SDS011;6816;48.506;9.050;2023-04-29T03:26:55;2.37;;;1.50;;
13487;SDS011;6816;48.506;9.050;2023-04-29T03:29:55;3.60;;;1.53;;
13487;SDS011;6816;48.506;9.050;2023-04-29T03:32:56;4.97;;;2.20;;
13487;SDS011;6816;48.506;9.050;2023-04-29T03:35:56;6.17;;;2.27;;
13487;SDS011;6816;48.506;9.050;2023-04-29T03:38:57;3.13;;;1.60;;
13487;SDS011;6816;48.506;9.050;2023-04-29T03:41:58;2.37;;;1.53;;
13487;SDS011;6816;48.506;9.050;2023-04-29T03:44:58;1.93;;;1.70;;
13487;SDS011;6816;48.506;9.050;2023-04-29T03:47:59;11.70;;;2.70;;
13487;SDS011;6816;48.506;9.050;2023-04-29T03:51:00;2.53;;;2.00;;
13487;SDS011;6816;48.506;9.050;2023-04-29T03:54:00;4.60;;;2.33;;
13487;SDS011;6816;48.506;9.050;2023-04-29T03:57:01;11.63;;;2.63;;
13487;SDS011;6816;48.506;9.050;2023-04-29T04:00:03;4.80;;;2.60;;
13487;SDS011;6816;48.506;9.050;2023-04-29T04:03:05;4.47;;;2.50;;
13487;SDS011;6816;48.506;9.050;2023-04-29T04:06:05;4.70;;;2.20;;
13487;SDS011;6816;48.506;9.050;2023-04-29T04:09:06;2.50;;;2.27;;
13487;SDS011;6816;48.506;9.050;2023-04-29T04:12:07;5.13;;;2.23;;
13487;SDS011;6816;48.506;9.050;2023-04-29T04:15:07;2.10;;;1.83;;
13487;SDS011;6816;48.506;9.050;2023-04-29T04:18:08;2.60;;;2.17;;
13487;SDS011;6816;48.506;9.050;2023-04-29T04:21:09;2.50;;;2.30;;
13487;SDS011;6816;48.506;9.050;2023-04-29T04:24:11;2.70;;;2.10;;
13487;SDS011;6816;48.506;9.050;2023-04-29T04:27:11;2.90;;;2.37;;
13487;SDS011;6816;48.506;9.050;2023-04-29T04:30:12;3.57;;;2.10;;
13487;SDS011;6816;48.506;9.050;2023-04-29T04:33:13;3.73;;;2.30;;
13487;SDS011;6816;48.506;9.050;2023-04-29T04:36:14;2.37;;;2.03;;
13487;SDS011;6816;48.506;9.050;2023-04-29T04:39:15;4.03;;;1.97;;
13487;SDS011;6816;48.506;9.050;2023-04-29T04:42:16;7.70;;;2.53;;
13487;SDS011;6816;48.506;9.050;2023-04-29T04:45:16;11.23;;;2.23;;
13487;SDS011;6816;48.506;9.050;2023-04-29T04:48:17;4.57;;;1.77;;
13487;SDS011;6816;48.506;9.050;2023-04-29T04:51:18;9.93;;;1.60;;
13487;SDS011;6816;48.506;9.050;2023-04-29T04:54:18;3.83;;;1.70;;
13487;SDS011;6816;48.506;9.050;2023-04-29T04:57:19;6.07;;;1.60;;
13487;SDS011;6816;48.506;9.050;2023-04-29T05:00:20;6.70;;;2.10;;
13487;SDS011;6816;48.506;9.050;2023-04-29T05:03:21;8.57;;;2.50;;
13487;SDS011;6816;48.506;9.050;2023-04-29T05:06:21;13.57;;;3.00;;
13487;SDS011;6816;48.506;9.050;2023-04-29T05:09:22;2.87;;;1.70;;
13487;SDS011;6816;48.506;9.050;2023-04-29T05:12:23;4.63;;;2.07;;
13487;SDS011;6816;48.506;9.050;2023-04-29T05:15:29;5.17;;;2.10;;
13487;SDS011;6816;48.506;9.050;2023-04-29T05:18:30;4.20;;;2.53;;
13487;SDS011;6816;48.506;9.050;2023-04-29T05:21:30;2.83;;;1.97;;
13487;SDS011;6816;48.506;9.050;2023-04-29T05:24:31;4.87;;;2.20;;
13487;SDS011;6816;48.506;9.050;2023-04-29T05:27:31;9.63;;;2.80;;
13487;SDS011;6816;48.506;9.050;2023-04-29T05:30:33;15.03;;;2.77;;
13487;SDS011;6816;48.506;9.050;2023-04-29T05:33:34;10.90;;;2.70;;
13487;SDS011;6816;48.506;9.050;2023-04-29T05:36:35;10.43;;;2.63;;
13487;SDS011;6816;48.506;9.050;2023-04-29T05:39:35;25.10;;;3.07;;
13487;SDS011;6816;48.506;9.050;2023-04-29T05:42:36;11.93;;;2.60;;
13487;SDS011;6816;48.506;9.050;2023-04-29T05:45:37;23.60;;;3.23;;
13487;SDS011;6816;48.506;9.050;2023-04-29T05:48:37;14.13;;;2.70;;
13487;SDS011;6816;48.506;9.050;2023-04-29T05:51:38;18.70;;;2.90;;
13487;SDS011;6816;48.506;9.050;2023-04-29T05:54:38;12.60;;;2.80;;
13487;SDS011;6816;48.506;9.050;2023-04-29T05:57:39;11.43;;;2.77;;
13487;SDS011;6816;48.506;9.050;2023-04-29T06:00:40;7.07;;;2.73;;
13487;SDS011;6816;48.506;9.050;2023-04-29T06:03:40;9.43;;;2.93;;
13487;SDS011;6816;48.506;9.050;2023-04-29T06:06:41;7.13;;;2.53;;
13487;SDS011;6816;48.506;9.050;2023-04-29T06:09:42;11.67;;;2.57;;
13487;SDS011;6816;48.506;9.050;2023-04-29T06:12:43;13.53;;;2.53;;
13487;SDS011;6816;48.506;9.050;2023-04-29T06:15:44;9.47;;;2.30;;
13487;SDS011;6816;48.506;9.050;2023-04-29T06:18:44;2.73;;;1.70;;
13487;SDS011;6816;48.506;9.050;2023-04-29T06:21:45;1.90;;;1.80;;
13487;SDS011;6816;48.506;9.050;2023-04-29T06:24:45;2.30;;;2.10;;
13487;SDS011;6816;48.506;9.050;2023-04-29T06:27:48;5.10;;;2.17;;
13487;SDS011;6816;48.506;9.050;2023-04-29T06:30:49;3.57;;;2.30;;
13487;SDS011;6816;48.506;9.050;2023-04-29T06:33:50;2.80;;;2.60;;
13487;SDS011;6816;48.506;9.050;2023-04-29T06:36:50;3.07;;;2.77;;
13487;SDS011;6816;48.506;9.050;2023-04-29T06:39:51;2.80;;;2.60;;
13487;SDS011;6816;48.506;9.050;2023-04-29T06:42:51;2.93;;;2.73;;
13487;SDS011;6816;48.506;9.050;2023-04-29T06:45:52;2.87;;;2.67;;
13487;SDS011;6816;48.506;9.050;2023-04-29T06:48:53;3.00;;;2.70;;
13487;SDS011;6816;48.506;9.050;2023-04-29T06:51:53;2.63;;;2.43;;
13487;SDS011;6816;48.506;9.050;2023-04-29T06:54:54;5.23;;;3.23;;
13487;SDS011;6816;48.506;9.050;2023-04-29T06:57:54;2.77;;;2.57;;
13487;SDS011;6816;48.506;9.050;2023-04-29T07:00:56;2.90;;;2.70;;
13487;SDS011;6816;48.506;9.050;2023-04-29T07:03:57;2.70;;;2.50;;
13487;SDS011;6816;48.506;9.050;2023-04-29T07:06:57;2.43;;;2.23;;
13487;SDS011;6816;48.506;9.050;2023-04-29T07:09:58;2.00;;;1.90;;
13487;SDS011;6816;48.506;9.050;2023-04-29T07:12:59;1.73;;;1.63;;
13487;SDS011;6816;48.506;9.050;2023-04-29T07:15:59;1.63;;;1.50;;
13487;SDS011;6816;48.506;9.050;2023-04-29T07:19:00;2.65;;;1.70;;
13487;SDS011;6816;48.506;9.050;2023-04-29T07:22:01;1.67;;;1.42;;
13487;SDS011;6816;48.506;9.050;2023-04-29T07:25:03;1.20;;;1.10;;
13487;SDS011;6816;48.506;9.050;2023-04-29T07:28:04;1.10;;;1.00;;
13487;SDS011;6816;48.506;9.050;2023-04-29T07:31:05;2.97;;;0.80;;
13487;SDS011;6816;48.506;9.050;2023-04-29T07:34:06;0.90;;;0.90;;
13487;SDS011;6816;48.506;9.050;2023-04-29T07:37:07;1.00;;;1.00;;
13487;SDS011;6816;48.506;9.050;2023-04-29T07:40:08;1.20;;;1.10;;
13487;SDS011;6816;48.506;9.050;2023-04-29T07:43:09;0.88;;;0.88;;
13487;SDS011;6816;48.506;9.050;2023-04-29T07:46:10;0.90;;;0.90;;
13487;SDS011;6816;48.506;9.050;2023-04-29T07:49:11;1.05;;;0.80;;
13487;SDS011;6816;48.506;9.050;2023-04-29T07:52:11;0.85;;;0.73;;
13487;SDS011;6816;48.506;9.050;2023-04-29T07:55:12;1.88;;;0.90;;
13487;SDS011;6816;48.506;9.050;2023-04-29T07:58:13;0.80;;;0.80;;
13487;SDS011;6816;48.506;9.050;2023-04-29T08:01:13;0.95;;;0.80;;
13487;SDS011;6816;48.506;9.050;2023-04-29T08:04:14;0.85;;;0.85;;
13487;SDS011;6816;48.506;9.050;2023-04-29T08:07:15;0.77;;;0.77;;
13487;SDS011;6816;48.506;9.050;2023-04-29T08:10:16;0.80;;;0.77;;
13487;SDS011;6816;48.506;9.050;2023-04-29T08:13:17;0.80;;;0.80;;
13487;SDS011;6816;48.506;9.050;2023-04-29T08:16:18;0.60;;;0.60;;
13487;SDS011;6816;48.506;9.050;2023-04-29T08:19:20;0.73;;;0.73;;
13487;SDS011;6816;48.506;9.050;2023-04-29T08:22:21;0.80;;;0.70;;
13487;SDS011;6816;48.506;9.050;2023-04-29T08:25:21;0.60;;;0.60;;
13487;SDS011;6816;48.506;9.050;2023-04-29T08:28:22;0.60;;;0.60;;
13487;SDS011;6816;48.506;9.050;2023-04-29T08:31:23;0.70;;;0.70;;
13487;SDS011;6816;48.506;9.050;2023-04-29T08:34:24;0.95;;;0.95;;
13487;SDS011;6816;48.506;9.050;2023-04-29T08:37:25;0.60;;;0.60;;
13487;SDS011;6816;48.506;9.050;2023-04-29T08:40:26;1.23;;;0.85;;
13487;SDS011;6816;48.506;9.050;2023-04-29T08:43:27;0.75;;;0.75;;
13487;SDS011;6816;48.506;9.050;2023-04-29T08:46:28;0.60;;;0.60;;
13487;SDS011;6816;48.506;9.050;2023-04-29T08:49:29;0.70;;;0.70;;
13487;SDS011;6816;48.506;9.050;2023-04-29T08:52:32;0.80;;;0.80;;
13487;SDS011;6816;48.506;9.050;2023-04-29T08:55:34;1.10;;;0.77;;
13487;SDS011;6816;48.506;9.050;2023-04-29T08:58:36;3.25;;;1.10;;
13487;SDS011;6816;48.506;9.050;2023-04-29T09:01:39;1.50;;;0.77;;
13487;SDS011;6816;48.506;9.050;2023-04-29T09:04:46;0.80;;;0.80;;
13487;SDS011;6816;48.506;9.050;2023-04-29T09:07:52;1.65;;;0.82;;
13487;SDS011;6816;48.506;9.050;2023-04-29T09:10:53;0.63;;;0.63;;
13487;SDS011;6816;48.506;9.050;2023-04-29T09:13:58;0.90;;;0.90;;
13487;SDS011;6816;48.506;9.050;2023-04-29T09:17:00;0.88;;;0.88;;
13487;SDS011;6816;48.506;9.050;2023-04-29T09:20:01;1.63;;;0.80;;
13487;SDS011;6816;48.506;9.050;2023-04-29T09:23:02;0.80;;;0.80;;
13487;SDS011;6816;48.506;9.050;2023-04-29T09:26:03;0.70;;;0.70;;
13487;SDS011;6816;48.506;9.050;2023-04-29T09:29:05;1.20;;;0.90;;
13487;SDS011;6816;48.506;9.050;2023-04-29T09:32:17;0.70;;;0.70;;
13487;SDS011;6816;48.506;9.050;2023-04-29T09:35:26;0.55;;;0.55;;
13487;SDS011;6816;48.506;9.050;2023-04-29T09:38:27;0.60;;;0.60;;
13487;SDS011;6816;48.506;9.050;2023-04-29T09:41:27;0.60;;;0.60;;
13487;SDS011;6816;48.506;9.050;2023-04-29T09:44:30;0.70;;;0.70;;
13487;SDS011;6816;48.506;9.050;2023-04-29T09:47:32;0.52;;;0.52;;
13487;SDS011;6816;48.506;9.050;2023-04-29T09:50:33;0.50;;;0.50;;
13487;SDS011;6816;48.506;9.050;2023-04-29T09:53:36;0.52;;;0.52;;
13487;SDS011;6816;48.506;9.050;2023-04-29T09:56:47;0.60;;;0.60;;
13487;SDS011;6816;48.506;9.050;2023-04-29T09:59:50;0.50;;;0.50;;
13487;SDS011;6816;48.506;9.050;2023-04-29T10:02:53;0.80;;;0.65;;
13487;SDS011;6816;48.506;9.050;2023-04-29T10:05:55;2.30;;;0.70;;
13487;SDS011;6816;48.506;9.050;2023-04-29T10:08:57;0.50;;;0.50;;
13487;SDS011;6816;48.506;9.050;2023-04-29T10:11:58;0.70;;;0.70;;
13487;SDS011;6816;48.506;9.050;2023-04-29T10:18:20;0.63;;;0.60;;
13487;SDS011;6816;48.506;9.050;2023-04-29T10:21:28;0.85;;;0.85;;
13487;SDS011;6816;48.506;9.050;2023-04-29T10:24:30;1.80;;;0.90;;
13487;SDS011;6816;48.506;9.050;2023-04-29T10:27:34;1.58;;;1.20;;
13487;SDS011;6816;48.506;9.050;2023-04-29T10:30:36;0.73;;;0.73;;
13487;SDS011;6816;48.506;9.050;2023-04-29T10:33:38;0.70;;;0.70;;
13487;SDS011;6816;48.506;9.050;2023-04-29T10:36:41;0.85;;;0.60;;
13487;SDS011;6816;48.506;9.050;2023-04-29T10:39:46;1.00;;;0.70;;
13487;SDS011;6816;48.506;9.050;2023-04-29T10:42:59;0.75;;;0.70;;
13487;SDS011;6816;48.506;9.050;2023-04-29T10:46:16;0.75;;;0.75;;
13487;SDS011;6816;48.506;9.050;2023-04-29T10:49:26;0.85;;;0.75;;
13487;SDS011;6816;48.506;9.050;2023-04-29T10:52:53;0.70;;;0.70;;
13487;SDS011;6816;48.506;9.050;2023-04-29T10:56:02;0.70;;;0.70;;
13487;SDS011;6816;48.506;9.050;2023-04-29T10:59:08;1.10;;;0.82;;
13487;SDS011;6816;48.506;9.050;2023-04-29T11:02:10;0.88;;;0.88;;
13487;SDS011;6816;48.506;9.050;2023-04-29T11:05:11;0.77;;;0.77;;
13487;SDS011;6816;48.506;9.050;2023-04-29T11:11:15;1.42;;;0.95;;
13487;SDS011;6816;48.506;9.050;2023-04-29T11:14:20;2.90;;;1.35;;
13487;SDS011;6816;48.506;9.050;2023-04-29T11:17:23;1.67;;;1.20;;
13487;SDS011;6816;48.506;9.050;2023-04-29T11:20:23;1.27;;;1.00;;
13487;SDS011;6816;48.506;9.050;2023-04-29T11:23:24;1.10;;;1.00;;
13487;SDS011;6816;48.506;9.050;2023-04-29T11:26:25;0.80;;;0.80;;
13487;SDS011;6816;48.506;9.050;2023-04-29T11:29:26;0.80;;;0.80;;
13487;SDS011;6816;48.506;9.050;2023-04-29T11:32:28;0.90;;;0.90;;
13487;SDS011;6816;48.506;9.050;2023-04-29T11:35:30;0.88;;;0.88;;
13487;SDS011;6816;48.506;9.050;2023-04-29T11:38:31;0.95;;;0.95;;
13487;SDS011;6816;48.506;9.050;2023-04-29T11:41:32;1.38;;;0.90;;
13487;SDS011;6816;48.506;9.050;2023-04-29T11:44:34;2.22;;;1.05;;
13487;SDS011;6816;48.506;9.050;2023-04-29T11:47:35;1.10;;;1.00;;
13487;SDS011;6816;48.506;9.050;2023-04-29T11:50:37;1.20;;;1.20;;
13487;SDS011;6816;48.506;9.050;2023-04-29T11:53:41;1.20;;;1.10;;
13487;SDS011;6816;48.506;9.050;2023-04-29T11:56:42;4.57;;;1.42;;
13487;SDS011;6816;48.506;9.050;2023-04-29T11:59:42;0.93;;;0.93;;
13487;SDS011;6816;48.506;9.050;2023-04-29T12:02:45;1.27;;;1.00;;
13487;SDS011;6816;48.506;9.050;2023-04-29T12:08:51;1.40;;;0.93;;
13487;SDS011;6816;48.506;9.050;2023-04-29T12:11:51;1.38;;;1.10;;
13487;SDS011;6816;48.506;9.050;2023-04-29T12:14:52;1.52;;;1.10;;
13487;SDS011;6816;48.506;9.050;2023-04-29T12:17:53;1.05;;;0.95;;
13487;SDS011;6816;48.506;9.050;2023-04-29T12:20:54;0.82;;;0.82;;
13487;SDS011;6816;48.506;9.050;2023-04-29T12:23:57;1.23;;;1.13;;
13487;SDS011;6816;48.506;9.050;2023-04-29T12:26:59;1.45;;;1.35;;
13487;SDS011;6816;48.506;9.050;2023-04-29T12:30:00;1.38;;;1.27;;
13487;SDS011;6816;48.506;9.050;2023-04-29T12:33:01;1.42;;;1.20;;
13487;SDS011;6816;48.506;9.050;2023-04-29T12:36:01;0.93;;;0.93;;
13487;SDS011;6816;48.506;9.050;2023-04-29T12:39:04;1.30;;;1.20;;
13487;SDS011;6816;48.506;9.050;2023-04-29T12:42:13;1.30;;;1.20;;
13487;SDS011;6816;48.506;9.050;2023-04-29T12:45:31;2.20;;;1.05;;
13487;SDS011;6816;48.506;9.050;2023-04-29T12:48:33;1.70;;;1.60;;
13487;SDS011;6816;48.506;9.050;2023-04-29T12:51:37;1.50;;;1.40;;
13487;SDS011;6816;48.506;9.050;2023-04-29T12:54:38;1.27;;;1.15;;
13487;SDS011;6816;48.506;9.050;2023-04-29T12:57:42;1.35;;;1.25;;
13487;SDS011;6816;48.506;9.050;2023-04-29T13:00:43;1.55;;;1.23;;
13487;SDS011;6816;48.506;9.050;2023-04-29T13:03:43;1.45;;;1.35;;
13487;SDS011;6816;48.506;9.050;2023-04-29T13:06:44;1.63;;;1.40;;
13487;SDS011;6816;48.506;9.050;2023-04-29T13:09:45;1.20;;;1.10;;
13487;SDS011;6816;48.506;9.050;2023-04-29T13:12:45;2.80;;;1.40;;
13487;SDS011;6816;48.506;9.050;2023-04-29T13:15:46;1.98;;;1.40;;
13487;SDS011;6816;48.506;9.050;2023-04-29T13:18:47;1.70;;;1.60;;
13487;SDS011;6816;48.506;9.050;2023-04-29T13:21:48;1.67;;;1.58;;
13487;SDS011;6816;48.506;9.050;2023-04-29T13:24:49;1.67;;;1.58;;
13487;SDS011;6816;48.506;9.050;2023-04-29T13:27:50;1.45;;;1.35;;
13487;SDS011;6816;48.506;9.050;2023-04-29T13:30:51;1.70;;;1.60;;
13487;SDS011;6816;48.506;9.050;2023-04-29T13:33:52;2.22;;;1.48;;
13487;SDS011;6816;48.506;9.050;2023-04-29T13:36:54;1.42;;;1.33;;
13487;SDS011;6816;48.506;9.050;2023-04-29T13:39:54;1.20;;;1.10;;
13487;SDS011;6816;48.506;9.050;2023-04-29T13:42:55;1.50;;;1.40;;
13487;SDS011;6816;48.506;9.050;2023-04-29T13:45:56;2.63;;;1.63;;
13487;SDS011;6816;48.506;9.050;2023-04-29T13:48:57;1.58;;;1.48;;
13487;SDS011;6816;48.506;9.050;2023-04-29T13:51:58;1.17;;;1.10;;
13487;SDS011;6816;48.506;9.050;2023-04-29T13:54:58;1.35;;;1.25;;
13487;SDS011;6816;48.506;9.050;2023-04-29T13:57:59;1.15;;;1.05;;
13487;SDS011;6816;48.506;9.050;2023-04-29T14:01:00;1.10;;;1.00;;
13487;SDS011;6816;48.506;9.050;2023-04-29T14:04:01;1.23;;;1.13;;
13487;SDS011;6816;48.506;9.050;2023-04-29T14:07:02;2.45;;;1.27;;
13487;SDS011;6816;48.506;9.050;2023-04-29T14:10:02;1.20;;;1.10;;
13487;SDS011;6816;48.506;9.050;2023-04-29T14:13:03;1.40;;;1.30;;
13487;SDS011;6816;48.506;9.050;2023-04-29T14:16:04;0.90;;;0.90;;
13487;SDS011;6816;48.506;9.050;2023-04-29T14:19:05;1.95;;;1.30;;
13487;SDS011;6816;48.506;9.050;2023-04-29T14:22:06;2.25;;;1.42;;
13487;SDS011;6816;48.506;9.050;2023-04-29T14:25:07;1.75;;;1.65;;
13487;SDS011;6816;48.506;9.050;2023-04-29T14:28:08;2.15;;;2.00;;
13487;SDS011;6816;48.506;9.050;2023-04-29T14:31:09;1.92;;;1.83;;
13487;SDS011;6816;48.506;9.050;2023-04-29T14:34:12;2.30;;;1.75;;
13487;SDS011;6816;48.506;9.050;2023-04-29T14:37:13;2.25;;;2.10;;
13487;SDS011;6816;48.506;9.050;2023-04-29T14:40:13;3.05;;;2.75;;
13487;SDS011;6816;48.506;9.050;2023-04-29T14:43:14;2.60;;;2.40;;
13487;SDS011;6816;48.506;9.050;2023-04-29T14:46:15;2.45;;;2.25;;
13487;SDS011;6816;48.506;9.050;2023-04-29T14:49:16;2.95;;;2.75;;
13487;SDS011;6816;48.506;9.050;2023-04-29T14:52:17;3.10;;;2.90;;
13487;SDS011;6816;48.506;9.050;2023-04-29T14:55:17;2.25;;;2.15;;
13487;SDS011;6816;48.506;9.050;2023-04-29T14:58:18;3.55;;;2.70;;
13487;SDS011;6816;48.506;9.050;2023-04-29T15:01:18;2.83;;;2.50;;
13487;SDS011;6816;48.506;9.050;2023-04-29T15:04:19;3.33;;;3.03;;
13487;SDS011;6816;48.506;9.050;2023-04-29T15:07:20;3.15;;;2.95;;
13487;SDS011;6816;48.506;9.050;2023-04-29T15:10:21;2.90;;;2.65;;
13487;SDS011;6816;48.506;9.050;2023-04-29T15:13:22;3.50;;;3.20;;
13487;SDS011;6816;48.506;9.050;2023-04-29T15:16:22;3.67;;;3.38;;
13487;SDS011;6816;48.506;9.050;2023-04-29T15:19:23;3.35;;;3.05;;
13487;SDS011;6816;48.506;9.050;2023-04-29T15:22:25;4.00;;;3.60;;
13487;SDS011;6816;48.506;9.050;2023-04-29T15:25:25;3.75;;;3.45;;
13487;SDS011;6816;48.506;9.050;2023-04-29T15:28:26;3.85;;;3.42;;
13487;SDS011;6816;48.506;9.050;2023-04-29T15:31:27;4.43;;;3.72;;
13487;SDS011;6816;48.506;9.050;2023-04-29T15:34:27;3.78;;;3.47;;
13487;SDS011;6816;48.506;9.050;2023-04-29T15:37:28;3.72;;;3.42;;
13487;SDS011;6816;48.506;9.050;2023-04-29T15:40:29;4.47;;;3.97;;
13487;SDS011;6816;48.506;9.050;2023-04-29T15:43:30;4.03;;;3.55;;
13487;SDS011;6816;48.506;9.050;2023-04-29T15:46:32;4.35;;;3.95;;
13487;SDS011;6816;48.506;9.050;2023-04-29T15:49:32;4.10;;;3.78;;
13487;SDS011;6816;48.506;9.050;2023-04-29T15:52:33;3.65;;;3.25;;
13487;SDS011;6816;48.506;9.050;2023-04-29T15:55:34;3.65;;;3.35;;
13487;SDS011;6816;48.506;9.050;2023-04-29T15:58:34;3.55;;;3.25;;
13487;SDS011;6816;48.506;9.050;2023-04-29T16:01:36;4.60;;;3.95;;
13487;SDS011;6816;48.506;9.050;2023-04-29T16:04:36;6.30;;;3.83;;
13487;SDS011;6816;48.506;9.050;2023-04-29T16:07:38;4.22;;;3.65;;
13487;SDS011;6816;48.506;9.050;2023-04-29T16:10:38;5.07;;;4.20;;
13487;SDS011;6816;48.506;9.050;2023-04-29T16:13:39;8.30;;;5.15;;
13487;SDS011;6816;48.506;9.050;2023-04-29T16:16:40;5.10;;;4.55;;
13487;SDS011;6816;48.506;9.050;2023-04-29T16:19:41;5.00;;;4.43;;
13487;SDS011;6816;48.506;9.050;2023-04-29T16:22:42;10.45;;;6.28;;
13487;SDS011;6816;48.506;9.050;2023-04-29T16:25:42;10.63;;;6.05;;
13487;SDS011;6816;48.506;9.050;2023-04-29T16:28:43;5.60;;;5.03;;
13487;SDS011;6816;48.506;9.050;2023-04-29T16:31:44;5.05;;;4.60;;
13487;SDS011;6816;48.506;9.050;2023-04-29T16:34:45;4.78;;;4.38;;
13487;SDS011;6816;48.506;9.050;2023-04-29T16:37:45;5.75;;;5.05;;
13487;SDS011;6816;48.506;9.050;2023-04-29T16:40:46;5.88;;;5.28;;
13487;SDS011;6816;48.506;9.050;2023-04-29T16:43:47;6.13;;;5.32;;
13487;SDS011;6816;48.506;9.050;2023-04-29T16:46:47;6.68;;;5.15;;
13487;SDS011;6816;48.506;9.050;2023-04-29T16:49:48;5.97;;;5.10;;
13487;SDS011;6816;48.506;9.050;2023-04-29T16:52:49;6.20;;;5.60;;
13487;SDS011;6816;48.506;9.050;2023-04-29T16:55:50;6.07;;;5.47;;
13487;SDS011;6816;48.506;9.050;2023-04-29T16:58:51;5.67;;;5.17;;
13487;SDS011;6816;48.506;9.050;2023-04-29T17:01:52;5.90;;;5.30;;
13487;SDS011;6816;48.506;9.050;2023-04-29T17:04:54;6.57;;;5.97;;
13487;SDS011;6816;48.506;9.050;2023-04-29T17:07:54;5.67;;;5.17;;
13487;SDS011;6816;48.506;9.050;2023-04-29T17:10:55;5.38;;;4.93;;
13487;SDS011;6816;48.506;9.050;2023-04-29T17:13:56;5.17;;;4.57;;
13487;SDS011;6816;48.506;9.050;2023-04-29T17:16:56;5.27;;;4.70;;
13487;SDS011;6816;48.506;9.050;2023-04-29T17:19:57;5.37;;;4.80;;
13487;SDS011;6816;48.506;9.050;2023-04-29T17:22:58;5.40;;;4.87;;
13487;SDS011;6816;48.506;9.050;2023-04-29T17:25:58;5.20;;;4.70;;
13487;SDS011;6816;48.506;9.050;2023-04-29T17:28:59;5.40;;;4.90;;
13487;SDS011;6816;48.506;9.050;2023-04-29T17:32:00;5.47;;;4.97;;
13487;SDS011;6816;48.506;9.050;2023-04-29T17:35:08;4.90;;;4.43;;
13487;SDS011;6816;48.506;9.050;2023-04-29T17:38:09;5.47;;;4.97;;
13487;SDS011;6816;48.506;9.050;2023-04-29T17:41:11;5.33;;;4.83;;
13487;SDS011;6816;48.506;9.050;2023-04-29T17:44:11;5.60;;;5.10;;
13487;SDS011;6816;48.506;9.050;2023-04-29T17:47:12;5.53;;;5.03;;
13487;SDS011;6816;48.506;9.050;2023-04-29T17:50:14;6.33;;;5.57;;
13487;SDS011;6816;48.506;9.050;2023-04-29T17:53:15;5.13;;;4.63;;
13487;SDS011;6816;48.506;9.050;2023-04-29T17:56:16;5.97;;;5.37;;
13487;SDS011;6816;48.506;9.050;2023-04-29T17:59:16;5.03;;;4.53;;
13487;SDS011;6816;48.506;9.050;2023-04-29T18:02:17;5.40;;;4.90;;
13487;SDS011;6816;48.506;9.050;2023-04-29T18:05:18;5.20;;;4.70;;
13487;SDS011;6816;48.506;9.050;2023-04-29T18:08:19;4.30;;;3.90;;
13487;SDS011;6816;48.506;9.050;2023-04-29T18:11:20;4.53;;;4.13;;
13487;SDS011;6816;48.506;9.050;2023-04-29T18:14:20;4.80;;;4.33;;
13487;SDS011;6816;48.506;9.050;2023-04-29T18:17:21;5.10;;;4.60;;
13487;SDS011;6816;48.506;9.050;2023-04-29T18:20:22;4.83;;;4.00;;
13487;SDS011;6816;48.506;9.050;2023-04-29T18:23:23;6.63;;;4.60;;
13487;SDS011;6816;48.506;9.050;2023-04-29T18:26:23;5.13;;;4.40;;
13487;SDS011;6816;48.506;9.050;2023-04-29T18:29:24;4.77;;;4.37;;
13487;SDS011;6816;48.506;9.050;2023-04-29T18:32:25;4.83;;;4.33;;
13487;SDS011;6816;48.506;9.050;2023-04-29T18:35:26;5.20;;;4.27;;
13487;SDS011;6816;48.506;9.050;2023-04-29T18:38:27;4.30;;;3.57;;
13487;SDS011;6816;48.506;9.050;2023-04-29T18:41:27;4.63;;;4.23;;
13487;SDS011;6816;48.506;9.050;2023-04-29T18:44:28;4.17;;;3.77;;
13487;SDS011;6816;48.506;9.050;2023-04-29T18:47:29;3.90;;;3.50;;
13487;SDS011;6816;48.506;9.050;2023-04-29T18:50:30;5.03;;;3.73;;
13487;SDS011;6816;48.506;9.050;2023-04-29T18:53:30;4.07;;;3.67;;